Aviation Digital Data Service (ADDS)

Output produced by TAFs form (0649 UTC 07 July 2015)
found at http://www.aviationweather.gov/adds/tafs/
 
KDEN 070639Z 11006KT 4SM FU HZ FEW024 OVC035 16/11 A3029 RMK AO2 T01560111
KDEN 070550Z 0706/0812 09008KT 4SM BR BKN030 
     FM070800 11008KT 5SM BR BKN040 BKN070 
     FM071500 15012KT P6SM BKN040 BKN100 
     FM071700 15012KT P6SM VCSH SCT050 BKN120 
     FM072100 18012KT P6SM VCTS SCT050CB BKN080 
     TEMPO 0722/0802 5SM -TSRA BKN050CB 
     FM080200 18010KT P6SM VCSH SCT050 BKN120